sensor_id;sensor_type;location;lat;lon;timestamp;pressure;altitude;pressure_sealevel;temperature;humidity
18569;BME280;14780;48.316;-1.050;2022-12-20T00:02:43;98580.59;;;24.15;34.91
18569;BME280;14780;48.316;-1.050;2022-12-20T00:05:29;98575.44;;;24.13;34.90
18569;BME280;14780;48.316;-1.050;2022-12-20T00:08:13;98569.97;;;24.13;34.82
18569;BME280;14780;48.316;-1.050;2022-12-20T00:11:00;98569.13;;;24.13;34.84
18569;BME280;14780;48.316;-1.050;2022-12-20T00:13:46;98568.31;;;24.12;34.90
18569;BME280;14780;48.316;-1.050;2022-12-20T00:16:30;98569.72;;;24.10;34.95
18569;BME280;14780;48.316;-1.050;2022-12-20T00:19:15;98559.59;;;24.10;34.85
18569;BME280;14780;48.316;-1.050;2022-12-20T00:22:01;98561.81;;;24.08;34.85
18569;BME280;14780;48.316;-1.050;2022-12-20T00:24:46;98557.97;;;24.09;35.01
18569;BME280;14780;48.316;-1.050;2022-12-20T00:27:30;98565.63;;;24.07;34.75
18569;BME280;14780;48.316;-1.050;2022-12-20T00:30:16;98555.22;;;24.09;34.92
18569;BME280;14780;48.316;-1.050;2022-12-20T00:33:01;98560.16;;;24.07;34.77
18569;BME280;14780;48.316;-1.050;2022-12-20T00:35:45;98556.88;;;24.05;34.81
18569;BME280;14780;48.316;-1.050;2022-12-20T00:38:30;98548.69;;;24.05;34.89
18569;BME280;14780;48.316;-1.050;2022-12-20T00:41:18;98558.00;;;24.04;34.86
18569;BME280;14780;48.316;-1.050;2022-12-20T00:44:04;98545.72;;;24.02;34.92
18569;BME280;14780;48.316;-1.050;2022-12-20T00:46:48;98541.06;;;24.02;34.94
18569;BME280;14780;48.316;-1.050;2022-12-20T00:49:33;98538.84;;;24.04;34.91
18569;BME280;14780;48.316;-1.050;2022-12-20T00:52:18;98537.75;;;24.05;34.84
18569;BME280;14780;48.316;-1.050;2022-12-20T00:55:03;98538.06;;;24.04;34.76
18569;BME280;14780;48.316;-1.050;2022-12-20T00:57:48;98526.03;;;24.05;34.78
18569;BME280;14780;48.316;-1.050;2022-12-20T01:00:32;98524.69;;;24.02;34.83
18569;BME280;14780;48.316;-1.050;2022-12-20T01:03:17;98505.81;;;24.01;34.72
18569;BME280;14780;48.316;-1.050;2022-12-20T01:06:02;98506.13;;;23.99;34.82
18569;BME280;14780;48.316;-1.050;2022-12-20T01:08:47;98518.13;;;23.98;34.77
18569;BME280;14780;48.316;-1.050;2022-12-20T01:11:34;98507.53;;;23.97;34.59
18569;BME280;14780;48.316;-1.050;2022-12-20T01:14:19;98503.97;;;23.96;34.83
18569;BME280;14780;48.316;-1.050;2022-12-20T01:17:04;98506.97;;;23.95;34.60
18569;BME280;14780;48.316;-1.050;2022-12-20T01:19:48;98502.34;;;23.95;34.60
18569;BME280;14780;48.316;-1.050;2022-12-20T01:22:33;98507.78;;;23.95;34.68
18569;BME280;14780;48.316;-1.050;2022-12-20T01:25:18;98497.13;;;23.94;34.52
18569;BME280;14780;48.316;-1.050;2022-12-20T01:28:02;98496.63;;;23.92;34.63
18569;BME280;14780;48.316;-1.050;2022-12-20T01:30:48;98498.53;;;23.91;34.82
18569;BME280;14780;48.316;-1.050;2022-12-20T01:33:33;98510.03;;;23.88;34.57
18569;BME280;14780;48.316;-1.050;2022-12-20T01:36:23;98505.41;;;23.89;34.75
18569;BME280;14780;48.316;-1.050;2022-12-20T01:39:12;98500.22;;;23.87;34.65
18569;BME280;14780;48.316;-1.050;2022-12-20T01:41:57;98505.09;;;23.90;34.60
18569;BME280;14780;48.316;-1.050;2022-12-20T01:47:30;98501.00;;;23.88;34.70
18569;BME280;14780;48.316;-1.050;2022-12-20T01:50:16;98491.19;;;23.87;34.72
18569;BME280;14780;48.316;-1.050;2022-12-20T01:53:02;98501.00;;;23.88;34.65
18569;BME280;14780;48.316;-1.050;2022-12-20T01:55:48;98499.13;;;23.88;34.70
18569;BME280;14780;48.316;-1.050;2022-12-20T01:58:33;98507.31;;;23.88;34.53
18569;BME280;14780;48.316;-1.050;2022-12-20T02:01:23;98500.22;;;23.87;34.62
18569;BME280;14780;48.316;-1.050;2022-12-20T02:04:09;98480.53;;;23.85;34.52
18569;BME280;14780;48.316;-1.050;2022-12-20T02:06:54;98495.59;;;23.83;34.50
18569;BME280;14780;48.316;-1.050;2022-12-20T02:09:39;98482.72;;;23.83;34.65
18569;BME280;14780;48.316;-1.050;2022-12-20T02:12:28;98483.81;;;23.82;34.63
18569;BME280;14780;48.316;-1.050;2022-12-20T02:21:34;98483.03;;;23.82;34.44
18569;BME280;14780;48.316;-1.050;2022-12-20T02:24:43;98479.47;;;23.81;34.49
18569;BME280;14780;48.316;-1.050;2022-12-20T02:27:42;98484.69;;;23.78;34.62
18569;BME280;14780;48.316;-1.050;2022-12-20T02:30:34;98478.97;;;23.74;34.69
18569;BME280;14780;48.316;-1.050;2022-12-20T02:33:23;98478.19;;;23.74;34.75
18569;BME280;14780;48.316;-1.050;2022-12-20T02:36:10;98478.97;;;23.74;34.80
18569;BME280;14780;48.316;-1.050;2022-12-20T02:38:54;98463.97;;;23.72;34.92
18569;BME280;14780;48.316;-1.050;2022-12-20T02:41:47;98469.75;;;23.70;34.31
18569;BME280;14780;48.316;-1.050;2022-12-20T02:44:58;98453.88;;;23.72;34.72
18569;BME280;14780;48.316;-1.050;2022-12-20T02:48:06;98465.59;;;23.73;34.50
18569;BME280;14780;48.316;-1.050;2022-12-20T02:50:53;98466.44;;;23.73;34.59
18569;BME280;14780;48.316;-1.050;2022-12-20T02:53:41;98453.88;;;23.72;34.42
18569;BME280;14780;48.316;-1.050;2022-12-20T02:56:36;98452.25;;;23.71;34.54
18569;BME280;14780;48.316;-1.050;2022-12-20T03:02:15;98432.06;;;23.67;34.73
18569;BME280;14780;48.316;-1.050;2022-12-20T03:05:01;98421.66;;;23.69;34.34
18569;BME280;14780;48.316;-1.050;2022-12-20T03:07:47;98423.31;;;23.70;34.81
18569;BME280;14780;48.316;-1.050;2022-12-20T03:10:31;98421.66;;;23.69;34.49
18569;BME280;14780;48.316;-1.050;2022-12-20T03:13:16;98415.41;;;23.69;34.30
18569;BME280;14780;48.316;-1.050;2022-12-20T03:16:02;98435.63;;;23.68;34.32
18569;BME280;14780;48.316;-1.050;2022-12-20T03:18:47;98429.34;;;23.67;34.49
18569;BME280;14780;48.316;-1.050;2022-12-20T03:21:32;98420.88;;;23.69;35.00
18569;BME280;14780;48.316;-1.050;2022-12-20T03:24:17;98436.97;;;23.70;34.47
18569;BME280;14780;48.316;-1.050;2022-12-20T03:27:02;98438.03;;;23.69;34.45
18569;BME280;14780;48.316;-1.050;2022-12-20T03:29:46;98438.88;;;23.70;34.70
18569;BME280;14780;48.316;-1.050;2022-12-20T03:32:31;98429.84;;;23.69;34.83
18569;BME280;14780;48.316;-1.050;2022-12-20T03:35:16;98427.13;;;23.69;34.36
18569;BME280;14780;48.316;-1.050;2022-12-20T03:38:00;98431.50;;;23.70;34.73
18569;BME280;14780;48.316;-1.050;2022-12-20T03:40:45;98432.59;;;23.69;34.41
18569;BME280;14780;48.316;-1.050;2022-12-20T03:43:30;98430.97;;;23.68;34.38
18569;BME280;14780;48.316;-1.050;2022-12-20T03:46:15;98444.91;;;23.67;34.82
18569;BME280;14780;48.316;-1.050;2022-12-20T03:49:00;98441.38;;;23.66;34.83
18569;BME280;14780;48.316;-1.050;2022-12-20T03:51:45;98446.53;;;23.68;34.44
18569;BME280;14780;48.316;-1.050;2022-12-20T03:54:30;98450.06;;;23.68;34.72
18569;BME280;14780;48.316;-1.050;2022-12-20T03:57:15;98426.31;;;23.69;34.35
18569;BME280;14780;48.316;-1.050;2022-12-20T04:00:00;98431.78;;;23.69;34.47
18569;BME280;14780;48.316;-1.050;2022-12-20T04:02:45;98430.97;;;23.68;34.38
18569;BME280;14780;48.316;-1.050;2022-12-20T04:05:29;98446.53;;;23.68;34.75
18569;BME280;14780;48.316;-1.050;2022-12-20T04:08:14;98455.84;;;23.67;34.34
18569;BME280;14780;48.316;-1.050;2022-12-20T04:10:59;98454.50;;;23.64;34.78
18569;BME280;14780;48.316;-1.050;2022-12-20T04:14:02;98450.41;;;23.62;34.78
18569;BME280;14780;48.316;-1.050;2022-12-20T04:16:46;98459.41;;;23.62;34.73
18569;BME280;14780;48.316;-1.050;2022-12-20T04:19:32;98456.69;;;23.62;34.43
18569;BME280;14780;48.316;-1.050;2022-12-20T04:22:16;98446.84;;;23.61;34.39
18569;BME280;14780;48.316;-1.050;2022-12-20T04:25:01;98448.47;;;23.62;34.52
18569;BME280;14780;48.316;-1.050;2022-12-20T04:27:46;98452.88;;;23.63;34.49
18569;BME280;14780;48.316;-1.050;2022-12-20T04:30:31;98461.06;;;23.63;34.69
18569;BME280;14780;48.316;-1.050;2022-12-20T04:33:16;98460.22;;;23.63;34.42
18569;BME280;14780;48.316;-1.050;2022-12-20T04:36:00;98453.94;;;23.62;34.41
18569;BME280;14780;48.316;-1.050;2022-12-20T04:38:46;98448.47;;;23.62;34.49
18569;BME280;14780;48.316;-1.050;2022-12-20T04:41:30;98459.16;;;23.59;34.35
18569;BME280;14780;48.316;-1.050;2022-12-20T04:44:15;98453.44;;;23.60;34.59
18569;BME280;14780;48.316;-1.050;2022-12-20T04:46:59;98463.25;;;23.61;34.32
18569;BME280;14780;48.316;-1.050;2022-12-20T04:49:44;98449.91;;;23.60;34.35
18569;BME280;14780;48.316;-1.050;2022-12-20T04:52:29;98456.16;;;23.60;34.34
18569;BME280;14780;48.316;-1.050;2022-12-20T04:55:37;98456.97;;;23.61;34.70
18569;BME280;14780;48.316;-1.050;2022-12-20T04:58:22;98449.34;;;23.58;34.70
18569;BME280;14780;48.316;-1.050;2022-12-20T05:01:07;98458.91;;;23.55;34.70
18569;BME280;14780;48.316;-1.050;2022-12-20T05:03:52;98460.84;;;23.55;34.37
18569;BME280;14780;48.316;-1.050;2022-12-20T05:06:37;98450.72;;;23.55;34.76
18569;BME280;14780;48.316;-1.050;2022-12-20T05:09:22;98451.28;;;23.57;34.46
18569;BME280;14780;48.316;-1.050;2022-12-20T05:12:07;98441.97;;;23.58;34.79
18569;BME280;14780;48.316;-1.050;2022-12-20T05:14:52;98440.34;;;23.57;34.66
18569;BME280;14780;48.316;-1.050;2022-12-20T05:17:37;98438.72;;;23.56;34.35
18569;BME280;14780;48.316;-1.050;2022-12-20T05:20:21;98435.44;;;23.54;34.68
18569;BME280;14780;48.316;-1.050;2022-12-20T05:23:08;98436.28;;;23.55;34.43
18569;BME280;14780;48.316;-1.050;2022-12-20T05:26:12;98436.28;;;23.55;34.80
18569;BME280;14780;48.316;-1.050;2022-12-20T05:29:03;98440.09;;;23.54;34.50
18569;BME280;14780;48.316;-1.050;2022-12-20T05:31:48;98425.34;;;23.55;34.42
18569;BME280;14780;48.316;-1.050;2022-12-20T05:34:33;98429.97;;;23.54;34.76
18569;BME280;14780;48.316;-1.050;2022-12-20T05:37:18;98443.63;;;23.54;34.33
18569;BME280;14780;48.316;-1.050;2022-12-20T05:40:03;98444.75;;;23.53;34.35
18569;BME280;14780;48.316;-1.050;2022-12-20T05:42:48;98450.50;;;23.52;34.49
18569;BME280;14780;48.316;-1.050;2022-12-20T05:45:33;98446.94;;;23.51;34.44
18569;BME280;14780;48.316;-1.050;2022-12-20T05:48:22;98443.94;;;23.53;34.83
18569;BME280;14780;48.316;-1.050;2022-12-20T05:51:07;98449.41;;;23.53;34.73
18569;BME280;14780;48.316;-1.050;2022-12-20T05:53:51;98450.19;;;23.53;34.39
18569;BME280;14780;48.316;-1.050;2022-12-20T05:56:36;98461.13;;;23.53;34.40
18569;BME280;14780;48.316;-1.050;2022-12-20T05:59:21;98445.84;;;23.52;34.60
18569;BME280;14780;48.316;-1.050;2022-12-20T06:02:05;98449.16;;;23.49;34.37
18569;BME280;14780;48.316;-1.050;2022-12-20T06:04:50;98448.06;;;23.50;34.86
18569;BME280;14780;48.316;-1.050;2022-12-20T06:07:35;98451.31;;;23.52;34.81
18569;BME280;14780;48.316;-1.050;2022-12-20T06:10:20;98441.50;;;23.51;34.33
18569;BME280;14780;48.316;-1.050;2022-12-20T06:13:05;98438.47;;;23.53;34.77
18569;BME280;14780;48.316;-1.050;2022-12-20T06:15:49;98440.38;;;23.52;34.90
18569;BME280;14780;48.316;-1.050;2022-12-20T06:18:34;98440.13;;;23.49;34.83
18569;BME280;14780;48.316;-1.050;2022-12-20T06:21:19;98442.06;;;23.48;34.94
18569;BME280;14780;48.316;-1.050;2022-12-20T06:24:05;98443.38;;;23.51;34.95
18569;BME280;14780;48.316;-1.050;2022-12-20T06:26:51;98433.28;;;23.51;34.83
18569;BME280;14780;48.316;-1.050;2022-12-20T06:29:36;98449.09;;;23.54;34.98
18569;BME280;14780;48.316;-1.050;2022-12-20T06:32:21;98431.59;;;23.55;34.84
18569;BME280;14780;48.316;-1.050;2022-12-20T06:35:06;98438.41;;;23.58;34.72
18569;BME280;14780;48.316;-1.050;2022-12-20T06:37:51;98432.69;;;23.59;34.46
18569;BME280;14780;48.316;-1.050;2022-12-20T06:40:35;98424.22;;;23.61;34.58
18569;BME280;14780;48.316;-1.050;2022-12-20T06:43:20;98431.31;;;23.62;34.61
18569;BME280;14780;48.316;-1.050;2022-12-20T06:46:05;98438.09;;;23.64;34.57
18569;BME280;14780;48.316;-1.050;2022-12-20T06:48:50;98427.72;;;23.66;34.78
18569;BME280;14780;48.316;-1.050;2022-12-20T06:51:34;98431.50;;;23.70;34.63
18569;BME280;14780;48.316;-1.050;2022-12-20T06:54:19;98425.47;;;23.73;34.58
18569;BME280;14780;48.316;-1.050;2022-12-20T06:57:04;98433.06;;;23.76;34.51
18569;BME280;14780;48.316;-1.050;2022-12-20T06:59:50;98426.22;;;23.79;34.52
18569;BME280;14780;48.316;-1.050;2022-12-20T07:02:35;98425.66;;;23.82;34.40
18569;BME280;14780;48.316;-1.050;2022-12-20T07:05:19;98421.00;;;23.82;35.11
18569;BME280;14780;48.316;-1.050;2022-12-20T07:08:04;98422.34;;;23.85;35.10
18569;BME280;14780;48.316;-1.050;2022-12-20T07:10:50;98431.66;;;23.84;34.67
18569;BME280;14780;48.316;-1.050;2022-12-20T07:13:35;98429.19;;;23.82;34.44
18569;BME280;14780;48.316;-1.050;2022-12-20T07:16:20;98422.09;;;23.81;34.54
18569;BME280;14780;48.316;-1.050;2022-12-20T07:19:05;98431.13;;;23.82;35.07
18569;BME280;14780;48.316;-1.050;2022-12-20T07:21:50;98428.66;;;23.80;34.77
18569;BME280;14780;48.316;-1.050;2022-12-20T07:24:35;98430.81;;;23.83;34.63
18569;BME280;14780;48.316;-1.050;2022-12-20T07:27:19;98420.44;;;23.85;34.87
18569;BME280;14780;48.316;-1.050;2022-12-20T07:30:05;98424.81;;;23.86;35.04
18569;BME280;14780;48.316;-1.050;2022-12-20T07:32:50;98433.81;;;23.87;34.41
18569;BME280;14780;48.316;-1.050;2022-12-20T07:35:34;98433.03;;;23.86;34.49
18569;BME280;14780;48.316;-1.050;2022-12-20T07:38:19;98430.53;;;23.85;35.03
18569;BME280;14780;48.316;-1.050;2022-12-20T07:41:09;98439.28;;;23.87;34.98
18569;BME280;14780;48.316;-1.050;2022-12-20T07:43:53;98426.44;;;23.87;34.49
18569;BME280;14780;48.316;-1.050;2022-12-20T07:46:38;98437.38;;;23.87;35.08
18569;BME280;14780;48.316;-1.050;2022-12-20T07:49:24;98432.44;;;23.89;34.74
18569;BME280;14780;48.316;-1.050;2022-12-20T07:52:09;98424.75;;;23.91;34.66
18569;BME280;14780;48.316;-1.050;2022-12-20T07:55:00;98434.31;;;23.94;34.95
18569;BME280;14780;48.316;-1.050;2022-12-20T07:57:50;98433.50;;;23.93;34.53
18569;BME280;14780;48.316;-1.050;2022-12-20T08:00:36;98433.25;;;23.90;35.21
18569;BME280;14780;48.316;-1.050;2022-12-20T08:03:36;98433.81;;;23.87;34.89
18569;BME280;14780;48.316;-1.050;2022-12-20T08:06:22;98440.34;;;23.91;35.06
18569;BME280;14780;48.316;-1.050;2022-12-20T08:09:07;98434.59;;;23.92;35.17
18569;BME280;14780;48.316;-1.050;2022-12-20T08:11:53;98430.47;;;23.95;34.93
18569;BME280;14780;48.316;-1.050;2022-12-20T08:14:38;98445.47;;;23.97;34.77
18569;BME280;14780;48.316;-1.050;2022-12-20T08:17:23;98432.34;;;23.99;35.27
18569;BME280;14780;48.316;-1.050;2022-12-20T08:20:09;98434.78;;;24.01;35.09
18569;BME280;14780;48.316;-1.050;2022-12-20T08:22:54;98441.63;;;23.98;35.27
18569;BME280;14780;48.316;-1.050;2022-12-20T08:25:38;98432.34;;;23.99;34.94
18569;BME280;14780;48.316;-1.050;2022-12-20T08:28:23;98433.38;;;24.03;35.28
18569;BME280;14780;48.316;-1.050;2022-12-20T08:31:09;98439.38;;;24.05;35.22
18569;BME280;14780;48.316;-1.050;2022-12-20T08:33:54;98438.81;;;24.08;34.83
18569;BME280;14780;48.316;-1.050;2022-12-20T08:36:39;98452.47;;;24.08;35.33
18569;BME280;14780;48.316;-1.050;2022-12-20T08:39:24;98446.41;;;24.11;35.32
18569;BME280;14780;48.316;-1.050;2022-12-20T08:42:10;98445.88;;;24.14;35.15
18569;BME280;14780;48.316;-1.050;2022-12-20T08:44:55;98437.34;;;24.16;35.20
18569;BME280;14780;48.316;-1.050;2022-12-20T08:47:40;98441.19;;;24.15;35.06
18569;BME280;14780;48.316;-1.050;2022-12-20T08:50:25;98446.66;;;24.15;34.86
18569;BME280;14780;48.316;-1.050;2022-12-20T08:53:10;98445.03;;;24.14;34.87
18569;BME280;14780;48.316;-1.050;2022-12-20T08:56:04;98451.59;;;24.13;35.05
18569;BME280;14780;48.316;-1.050;2022-12-20T08:58:49;98465.03;;;24.09;34.93
18569;BME280;14780;48.316;-1.050;2022-12-20T09:01:34;98462.91;;;24.06;35.18
18569;BME280;14780;48.316;-1.050;2022-12-20T09:04:20;98458.50;;;24.05;35.23
18569;BME280;14780;48.316;-1.050;2022-12-20T09:07:05;98455.25;;;24.03;35.36
18569;BME280;14780;48.316;-1.050;2022-12-20T09:09:50;98456.88;;;24.04;34.96
18569;BME280;14780;48.316;-1.050;2022-12-20T09:12:38;98454.97;;;24.05;35.24
18569;BME280;14780;48.316;-1.050;2022-12-20T09:15:23;98443.75;;;24.06;35.25
18569;BME280;14780;48.316;-1.050;2022-12-20T09:18:10;98456.84;;;24.09;35.30
18569;BME280;14780;48.316;-1.050;2022-12-20T09:20:58;98458.41;;;24.15;35.31
18569;BME280;14780;48.316;-1.050;2022-12-20T09:23:43;98460.88;;;24.17;35.49
18569;BME280;14780;48.316;-1.050;2022-12-20T09:26:28;98437.31;;;24.21;35.46
18569;BME280;14780;48.316;-1.050;2022-12-20T09:29:14;98446.22;;;24.31;35.46
18569;BME280;14780;48.316;-1.050;2022-12-20T09:31:58;98457.09;;;24.36;35.39
18569;BME280;14780;48.316;-1.050;2022-12-20T09:34:43;98451.56;;;24.41;35.65
18569;BME280;14780;48.316;-1.050;2022-12-20T09:37:30;98450.16;;;24.44;35.70
18569;BME280;14780;48.316;-1.050;2022-12-20T09:40:21;98445.53;;;24.44;35.64
18569;BME280;14780;48.316;-1.050;2022-12-20T09:43:08;98452.63;;;24.45;35.51
18569;BME280;14780;48.316;-1.050;2022-12-20T09:45:58;98453.44;;;24.46;35.71
18569;BME280;14780;48.316;-1.050;2022-12-20T09:48:44;98449.84;;;24.50;35.67
18569;BME280;14780;48.316;-1.050;2022-12-20T09:57:57;98454.16;;;24.56;35.45
18569;BME280;14780;48.316;-1.050;2022-12-20T10:00:48;98462.91;;;24.58;35.58
18569;BME280;14780;48.316;-1.050;2022-12-20T10:03:35;98467.78;;;24.61;35.49
18569;BME280;14780;48.316;-1.050;2022-12-20T10:15:40;98467.44;;;24.68;35.12
18569;BME280;14780;48.316;-1.050;2022-12-20T10:18:40;98462.75;;;24.68;35.21
18569;BME280;14780;48.316;-1.050;2022-12-20T10:24:31;98456.19;;;24.69;35.50
18569;BME280;14780;48.316;-1.050;2022-12-20T10:27:20;98464.34;;;24.74;35.27
18569;BME280;14780;48.316;-1.050;2022-12-20T10:30:18;98456.94;;;24.75;35.38
18569;BME280;14780;48.316;-1.050;2022-12-20T10:33:04;98457.75;;;24.75;35.18
18569;BME280;14780;48.316;-1.050;2022-12-20T10:35:49;98448.19;;;24.73;35.36
18569;BME280;14780;48.316;-1.050;2022-12-20T10:38:47;98446.28;;;24.73;35.34
18569;BME280;14780;48.316;-1.050;2022-12-20T10:41:33;98441.38;;;24.70;35.34
18569;BME280;14780;48.316;-1.050;2022-12-20T10:44:31;98442.72;;;24.73;35.24
18569;BME280;14780;48.316;-1.050;2022-12-20T10:50:20;98435.41;;;24.68;35.12
18569;BME280;14780;48.316;-1.050;2022-12-20T10:56:08;98434.16;;;24.61;35.41
18569;BME280;14780;48.316;-1.050;2022-12-20T11:01:59;98417.41;;;24.62;35.39
18569;BME280;14780;48.316;-1.050;2022-12-20T11:05:00;98415.00;;;24.61;35.19
18569;BME280;14780;48.316;-1.050;2022-12-20T11:08:15;98420.75;;;24.59;35.25
18569;BME280;14780;48.316;-1.050;2022-12-20T11:11:29;98412.56;;;24.54;35.24
18569;BME280;14780;48.316;-1.050;2022-12-20T11:14:14;98416.69;;;24.57;35.54
18569;BME280;14780;48.316;-1.050;2022-12-20T11:17:50;98411.44;;;24.60;35.93
18569;BME280;14780;48.316;-1.050;2022-12-20T11:20:24;98412.72;;;24.68;35.94
18569;BME280;14780;48.316;-1.050;2022-12-20T11:23:44;98397.09;;;24.68;35.86
18569;BME280;14780;48.316;-1.050;2022-12-20T11:29:43;98392.47;;;24.69;35.77
18569;BME280;14780;48.316;-1.050;2022-12-20T11:32:47;98397.09;;;24.68;36.01
18569;BME280;14780;48.316;-1.050;2022-12-20T11:36:05;98382.31;;;24.69;35.87
18569;BME280;14780;48.316;-1.050;2022-12-20T11:48:19;98385.44;;;24.81;35.92
18569;BME280;14780;48.316;-1.050;2022-12-20T11:51:10;98378.91;;;24.77;35.85
18569;BME280;14780;48.316;-1.050;2022-12-20T11:54:00;98380.63;;;24.73;35.86
18569;BME280;14780;48.316;-1.050;2022-12-20T11:56:49;98380.88;;;24.77;36.30
18569;BME280;14780;48.316;-1.050;2022-12-20T11:59:44;98367.13;;;24.82;36.24
18569;BME280;14780;48.316;-1.050;2022-12-20T12:02:43;98373.38;;;24.82;36.47
18569;BME280;14780;48.316;-1.050;2022-12-20T12:05:47;98368.75;;;24.83;36.55
18569;BME280;14780;48.316;-1.050;2022-12-20T12:08:41;98362.72;;;24.81;36.45
18569;BME280;14780;48.316;-1.050;2022-12-20T12:11:30;98355.06;;;24.83;36.42
18569;BME280;14780;48.316;-1.050;2022-12-20T12:14:27;98353.44;;;24.82;36.38
18569;BME280;14780;48.316;-1.050;2022-12-20T12:17:28;98355.63;;;24.80;36.47
18569;BME280;14780;48.316;-1.050;2022-12-20T12:23:24;98343.34;;;24.77;36.35
18569;BME280;14780;48.316;-1.050;2022-12-20T12:26:33;98341.22;;;24.74;36.56
18569;BME280;14780;48.316;-1.050;2022-12-20T12:29:19;98339.00;;;24.76;36.42
18569;BME280;14780;48.316;-1.050;2022-12-20T12:45:23;98329.09;;;24.80;37.18
18569;BME280;14780;48.316;-1.050;2022-12-20T12:50:38;98329.31;;;24.84;36.86
18569;BME280;14780;48.316;-1.050;2022-12-20T12:54:36;98324.97;;;24.83;36.95
18569;BME280;14780;48.316;-1.050;2022-12-20T12:56:50;98332.56;;;24.86;36.80
18569;BME280;14780;48.316;-1.050;2022-12-20T13:02:25;98321.91;;;24.84;36.93
18569;BME280;14780;48.316;-1.050;2022-12-20T13:07:56;98321.91;;;24.84;36.87
18569;BME280;14780;48.316;-1.050;2022-12-20T13:13:26;98322.44;;;24.86;36.83
18569;BME280;14780;48.316;-1.050;2022-12-20T13:16:12;98315.34;;;24.85;36.71
18569;BME280;14780;48.316;-1.050;2022-12-20T13:19:14;98317.56;;;24.83;37.10
18569;BME280;14780;48.316;-1.050;2022-12-20T13:25:02;98315.94;;;24.82;36.89
18569;BME280;14780;48.316;-1.050;2022-12-20T13:27:47;98322.00;;;24.79;37.21
18569;BME280;14780;48.316;-1.050;2022-12-20T13:30:33;98320.28;;;24.83;36.92
18569;BME280;14780;48.316;-1.050;2022-12-20T13:42:26;98301.22;;;24.78;37.32
18569;BME280;14780;48.316;-1.050;2022-12-20T13:45:14;98299.59;;;24.77;37.12
18569;BME280;14780;48.316;-1.050;2022-12-20T13:48:04;98296.84;;;24.77;37.06
18569;BME280;14780;48.316;-1.050;2022-12-20T13:50:54;98309.22;;;24.75;37.21
18569;BME280;14780;48.316;-1.050;2022-12-20T13:53:40;98311.41;;;24.73;37.16
18569;BME280;14780;48.316;-1.050;2022-12-20T13:59:30;98306.56;;;24.70;37.29
18569;BME280;14780;48.316;-1.050;2022-12-20T14:02:23;98301.38;;;24.68;37.19
18569;BME280;14780;48.316;-1.050;2022-12-20T14:08:09;98297.00;;;24.67;37.09
18569;BME280;14780;48.316;-1.050;2022-12-20T14:11:10;98292.66;;;24.66;37.47
18569;BME280;14780;48.316;-1.050;2022-12-20T14:13:58;98301.66;;;24.67;37.06
18569;BME280;14780;48.316;-1.050;2022-12-20T14:16:43;98295.97;;;24.63;37.01
18569;BME280;14780;48.316;-1.050;2022-12-20T14:19:28;98305.81;;;24.64;37.29
18569;BME280;14780;48.316;-1.050;2022-12-20T14:22:13;98299.81;;;24.62;37.25
18569;BME280;14780;48.316;-1.050;2022-12-20T14:24:58;98300.13;;;24.61;37.35
18569;BME280;14780;48.316;-1.050;2022-12-20T14:27:44;98298.19;;;24.61;37.31
18569;BME280;14780;48.316;-1.050;2022-12-20T14:30:41;98309.41;;;24.60;37.02
18569;BME280;14780;48.316;-1.050;2022-12-20T14:33:36;98314.09;;;24.59;37.40
18569;BME280;14780;48.316;-1.050;2022-12-20T14:36:21;98314.38;;;24.58;37.12
18569;BME280;14780;48.316;-1.050;2022-12-20T14:39:26;98308.09;;;24.57;37.33
18569;BME280;14780;48.316;-1.050;2022-12-20T14:42:12;98308.09;;;24.57;37.23
18569;BME280;14780;48.316;-1.050;2022-12-20T14:45:26;98310.03;;;24.57;36.96
18569;BME280;14780;48.316;-1.050;2022-12-20T14:48:15;98319.59;;;24.54;37.32
18569;BME280;14780;48.316;-1.050;2022-12-20T14:51:04;98311.75;;;24.48;37.09
18569;BME280;14780;48.316;-1.050;2022-12-20T14:53:49;98318.56;;;24.50;37.07
18569;BME280;14780;48.316;-1.050;2022-12-20T14:56:35;98319.97;;;24.48;37.12
18569;BME280;14780;48.316;-1.050;2022-12-20T14:59:25;98317.75;;;24.50;37.18
18569;BME280;14780;48.316;-1.050;2022-12-20T15:02:38;98316.72;;;24.46;37.24
18569;BME280;14780;48.316;-1.050;2022-12-20T15:13:56;98322.75;;;24.43;37.01
18569;BME280;14780;48.316;-1.050;2022-12-20T15:16:46;98320.53;;;24.45;36.82
18569;BME280;14780;48.316;-1.050;2022-12-20T15:19:31;98334.53;;;24.43;37.20
18569;BME280;14780;48.316;-1.050;2022-12-20T15:22:18;98331.25;;;24.41;37.02
18569;BME280;14780;48.316;-1.050;2022-12-20T15:25:17;98334.53;;;24.43;37.03
18569;BME280;14780;48.316;-1.050;2022-12-20T15:28:04;98330.44;;;24.41;37.17
18569;BME280;14780;48.316;-1.050;2022-12-20T15:30:53;98335.31;;;24.44;37.14
18569;BME280;14780;48.316;-1.050;2022-12-20T15:33:40;98339.91;;;24.48;37.66
18569;BME280;14780;48.316;-1.050;2022-12-20T15:36:26;98345.91;;;24.50;37.44
18569;BME280;14780;48.316;-1.050;2022-12-20T15:39:12;98355.75;;;24.51;37.25
18569;BME280;14780;48.316;-1.050;2022-12-20T15:42:01;98356.63;;;24.47;37.85
18569;BME280;14780;48.316;-1.050;2022-12-20T15:44:48;98355.81;;;24.46;37.80
18569;BME280;14780;48.316;-1.050;2022-12-20T15:47:32;98350.94;;;24.43;37.44
18569;BME280;14780;48.316;-1.050;2022-12-20T15:50:17;98348.47;;;24.42;37.32
18569;BME280;14780;48.316;-1.050;2022-12-20T15:53:02;98359.41;;;24.42;37.56
18569;BME280;14780;48.316;-1.050;2022-12-20T15:55:48;98364.66;;;24.38;37.35
18569;BME280;14780;48.316;-1.050;2022-12-20T15:58:33;98366.28;;;24.39;37.39
18569;BME280;14780;48.316;-1.050;2022-12-20T16:01:30;98372.34;;;24.36;37.40
18569;BME280;14780;48.316;-1.050;2022-12-20T16:04:19;98372.91;;;24.33;37.34
18569;BME280;14780;48.316;-1.050;2022-12-20T16:07:07;98378.38;;;24.33;37.46
18569;BME280;14780;48.316;-1.050;2022-12-20T16:09:52;98386.06;;;24.31;37.41
18569;BME280;14780;48.316;-1.050;2022-12-20T16:12:37;98386.66;;;24.28;37.62
18569;BME280;14780;48.316;-1.050;2022-12-20T16:15:22;98387.47;;;24.29;37.38
18569;BME280;14780;48.316;-1.050;2022-12-20T16:18:07;98397.59;;;24.28;37.52
18569;BME280;14780;48.316;-1.050;2022-12-20T16:20:52;98397.38;;;24.25;37.37
18569;BME280;14780;48.316;-1.050;2022-12-20T16:23:38;98393.28;;;24.22;37.50
18569;BME280;14780;48.316;-1.050;2022-12-20T16:26:24;98392.69;;;24.25;37.26